createdAt,value
2018-09-29T00:02:00.126Z,87.66
2018-09-29T00:04:28.682Z,87.00
2018-09-29T00:06:57.277Z,85.85
2018-09-29T00:09:25.844Z,85.73
2018-09-29T00:11:54.430Z,84.92
2018-09-29T00:14:23.037Z,84.54
2018-09-29T00:16:51.594Z,85.04
2018-09-29T00:19:20.135Z,84.50
2018-09-29T00:21:48.857Z,84.41
2018-09-29T00:24:17.423Z,84.70
2018-09-29T00:26:46.206Z,84.65
2018-09-29T00:29:14.747Z,84.58
2018-09-29T00:31:43.314Z,84.98
2018-09-29T00:34:11.917Z,85.53
2018-09-29T00:36:40.515Z,85.33
2018-09-29T00:39:09.441Z,85.39
2018-09-29T00:41:38.121Z,85.59
2018-09-29T00:44:07.083Z,85.55
2018-09-29T00:46:35.706Z,86.37
2018-09-29T00:49:04.297Z,86.89
2018-09-29T00:51:32.858Z,86.66
2018-09-29T00:57:00.455Z,87.57
2018-09-29T00:59:29.054Z,87.30
2018-09-29T01:01:57.626Z,86.72
2018-09-29T01:04:27.202Z,86.81
2018-09-29T01:06:55.762Z,85.48
2018-09-29T01:09:24.404Z,85.26
2018-09-29T01:11:52.973Z,85.21
2018-09-29T01:14:21.543Z,84.18
2018-09-29T01:16:50.170Z,83.55
2018-09-29T01:19:18.742Z,84.73
2018-09-29T01:21:47.337Z,84.02
2018-09-29T01:24:15.934Z,83.94
2018-09-29T01:26:44.526Z,84.34
2018-09-29T01:29:13.179Z,83.68
2018-09-29T01:31:41.862Z,83.83
2018-09-29T01:34:10.681Z,83.45
2018-09-29T01:36:39.330Z,83.66
2018-09-29T01:39:09.898Z,84.54
2018-09-29T01:41:38.777Z,82.99
2018-09-29T01:44:07.650Z,83.42
2018-09-29T01:46:36.540Z,83.32
2018-09-29T01:49:05.304Z,83.22
2018-09-29T01:51:34.264Z,82.72
2018-09-29T01:54:02.877Z,82.35
2018-09-29T01:56:31.622Z,82.51
2018-09-29T01:59:00.249Z,82.98
2018-09-29T02:01:28.849Z,82.59
2018-09-29T02:03:57.414Z,83.04
2018-09-29T02:06:26.013Z,82.37
2018-09-29T02:08:55.276Z,82.82
2018-09-29T02:11:23.839Z,83.23
2018-09-29T02:13:52.526Z,83.12
2018-09-29T02:16:21.102Z,82.92
2018-09-29T02:18:49.790Z,82.31
2018-09-29T02:21:18.325Z,83.23
2018-09-29T02:23:47.000Z,83.26
2018-09-29T02:26:15.578Z,83.67
2018-09-29T02:28:44.158Z,82.42
2018-09-29T02:31:12.707Z,82.52
2018-09-29T02:33:41.286Z,83.53
2018-09-29T02:36:09.822Z,82.75
2018-09-29T02:38:38.406Z,83.86
2018-09-29T02:41:07.009Z,83.30
2018-09-29T02:43:35.554Z,84.33
2018-09-29T02:46:04.409Z,83.45
2018-09-29T02:48:32.957Z,83.78
2018-09-29T02:51:01.526Z,84.16
2018-09-29T02:53:30.060Z,84.06
2018-09-29T02:55:58.610Z,84.98
2018-09-29T02:58:27.170Z,85.15
2018-09-29T03:00:55.830Z,84.90
2018-09-29T03:03:24.406Z,84.65
2018-09-29T03:05:52.985Z,84.56
2018-09-29T03:08:21.629Z,84.72
2018-09-29T03:10:50.304Z,84.79
2018-09-29T03:13:18.852Z,84.94
2018-09-29T03:15:47.461Z,85.68
2018-09-29T03:18:16.074Z,84.75
2018-09-29T03:20:45.117Z,84.99
2018-09-29T03:23:13.740Z,85.89
2018-09-29T03:25:42.281Z,86.51
2018-09-29T03:28:10.916Z,86.15
2018-09-29T03:30:39.529Z,86.03
2018-09-29T03:33:08.121Z,86.51
2018-09-29T03:50:38.461Z,86.07
2018-09-29T03:53:06.776Z,86.31
2018-09-29T03:55:35.156Z,86.23
2018-09-29T03:58:03.594Z,87.22
2018-09-29T04:00:31.918Z,86.87
2018-09-29T04:03:00.240Z,87.08
2018-09-29T04:05:28.591Z,87.26
2018-09-29T04:07:56.904Z,87.62
2018-09-29T04:10:25.220Z,88.07
2018-09-29T04:12:53.548Z,86.81
2018-09-29T04:15:21.995Z,87.24
2018-09-29T04:17:50.326Z,87.93
2018-09-29T04:20:18.689Z,86.52
2018-09-29T04:22:46.995Z,87.78
2018-09-29T04:25:15.348Z,87.87
2018-09-29T04:27:43.677Z,87.82
2018-09-29T04:30:11.992Z,87.66
2018-09-29T04:32:40.345Z,87.72
2018-09-29T04:35:08.692Z,86.17
2018-09-29T04:37:37.066Z,86.61
2018-09-29T04:40:05.631Z,86.97
2018-09-29T04:42:33.960Z,87.50
2018-09-29T04:45:02.283Z,87.38
2018-09-29T04:47:30.756Z,86.60
2018-09-29T04:49:59.056Z,88.04
2018-09-29T04:52:27.455Z,87.21
2018-09-29T04:54:55.763Z,87.11
2018-09-29T04:57:24.112Z,86.46
2018-09-29T04:59:52.651Z,87.08
2018-09-29T05:02:21.083Z,86.61
2018-09-29T05:04:49.870Z,86.17
2018-09-29T05:07:18.191Z,86.98
2018-09-29T05:09:46.503Z,86.01
2018-09-29T05:12:14.880Z,86.33
2018-09-29T05:14:43.184Z,86.62
2018-09-29T05:17:11.963Z,86.99
2018-09-29T05:19:40.296Z,86.39
2018-09-29T05:22:08.647Z,86.92
2018-09-29T05:24:37.083Z,86.73
2018-09-29T05:27:05.504Z,86.85
2018-09-29T05:29:33.827Z,87.04
2018-09-29T05:32:02.179Z,87.17
2018-09-29T05:34:30.494Z,86.91
2018-09-29T05:36:58.798Z,87.39
2018-09-29T05:39:27.307Z,87.27
2018-09-29T05:41:56.043Z,85.58
2018-09-29T05:44:24.363Z,85.43
2018-09-29T05:46:53.243Z,85.74
2018-09-29T05:49:21.957Z,85.29
2018-09-29T05:51:50.279Z,85.24
2018-09-29T05:54:18.645Z,85.34
2018-09-29T05:56:46.988Z,85.38
2018-09-29T05:59:15.329Z,84.41
2018-09-29T06:01:43.678Z,84.94
2018-09-29T06:04:11.992Z,84.43
2018-09-29T06:06:40.343Z,83.80
2018-09-29T06:09:09.360Z,82.85
2018-09-29T06:11:37.723Z,83.34
2018-09-29T06:14:06.051Z,83.42
2018-09-29T06:16:34.415Z,82.87
2018-09-29T06:19:02.867Z,83.13
2018-09-29T06:21:31.183Z,82.06
2018-09-29T06:23:59.475Z,81.42
2018-09-29T06:26:27.884Z,80.81
2018-09-29T06:28:56.176Z,81.69
2018-09-29T06:31:24.523Z,81.01
2018-09-29T06:33:52.840Z,80.35
2018-09-29T06:36:21.160Z,75.85
2018-09-29T06:38:49.484Z,65.32
2018-09-29T06:41:17.840Z,57.84
2018-09-29T06:43:46.177Z,55.00
2018-09-29T06:46:14.496Z,55.05
2018-09-29T06:48:42.787Z,53.93
2018-09-29T06:51:11.103Z,54.47
2018-09-29T06:53:39.480Z,52.33
2018-09-29T06:56:08.523Z,48.61
2018-09-29T06:58:36.847Z,45.68
2018-09-29T07:01:05.192Z,43.49
2018-09-29T07:03:33.691Z,43.83
2018-09-29T07:06:02.031Z,41.41
2018-09-29T07:08:30.357Z,41.41
2018-09-29T07:10:58.687Z,39.09
2018-09-29T07:13:27.239Z,39.75
2018-09-29T07:15:55.614Z,38.40
2018-09-29T07:18:23.998Z,38.33
2018-09-29T07:20:52.716Z,36.84
2018-09-29T07:23:21.060Z,37.34
2018-09-29T07:25:49.400Z,36.61
2018-09-29T07:28:17.751Z,37.16
2018-09-29T07:30:46.080Z,40.06
2018-09-29T07:33:14.467Z,39.04
2018-09-29T07:35:42.787Z,38.32
2018-09-29T07:38:11.147Z,37.72
2018-09-29T07:40:39.488Z,36.72
2018-09-29T07:43:07.866Z,36.11
2018-09-29T07:45:36.265Z,37.99
2018-09-29T07:48:04.583Z,36.38
2018-09-29T07:50:32.959Z,34.20
2018-09-29T07:53:01.296Z,34.82
2018-09-29T07:55:29.740Z,33.33
2018-09-29T07:57:58.156Z,35.48
2018-09-29T08:00:26.507Z,32.77
2018-09-29T08:02:54.828Z,31.60
2018-09-29T08:05:23.155Z,29.02
2018-09-29T08:07:51.636Z,31.37
2018-09-29T08:10:19.931Z,32.54
2018-09-29T08:12:48.296Z,29.77
2018-09-29T08:15:16.603Z,29.34
2018-09-29T08:17:45.020Z,28.61
2018-09-29T08:20:13.375Z,28.69
2018-09-29T08:22:41.746Z,28.58
2018-09-29T08:25:10.050Z,29.98
2018-09-29T08:27:38.471Z,28.39
2018-09-29T08:30:06.903Z,30.33
2018-09-29T08:32:35.238Z,27.09
2018-09-29T08:35:03.672Z,25.57
2018-09-29T08:37:31.960Z,26.90
2018-09-29T08:40:00.351Z,27.47
2018-09-29T08:42:28.811Z,25.46
2018-09-29T08:44:57.232Z,26.55
2018-09-29T08:47:25.535Z,26.39
2018-09-29T08:49:53.922Z,23.32
2018-09-29T08:52:22.235Z,24.18
2018-09-29T08:54:50.639Z,23.43
2018-09-29T08:57:18.952Z,25.74
2018-09-29T08:59:47.251Z,23.77
2018-09-29T09:02:15.555Z,25.19
2018-09-29T09:04:43.913Z,24.39
2018-09-29T09:07:12.271Z,23.39
2018-09-29T09:09:40.592Z,23.27
2018-09-29T09:12:08.917Z,23.57
2018-09-29T09:14:37.608Z,24.27
2018-09-29T09:17:05.935Z,23.78
2018-09-29T09:19:34.307Z,22.78
2018-09-29T09:22:02.651Z,22.67
2018-09-29T09:24:31.145Z,22.13
2018-09-29T09:26:59.468Z,24.02
2018-09-29T09:29:28.007Z,22.54
2018-09-29T09:31:56.344Z,20.74
2018-09-29T09:34:24.691Z,22.74
2018-09-29T09:36:53.112Z,23.36
2018-09-29T09:39:21.475Z,21.92
2018-09-29T09:41:49.819Z,24.24
2018-09-29T09:44:20.003Z,23.72
2018-09-29T09:46:48.356Z,23.37
2018-09-29T09:49:16.696Z,22.07
2018-09-29T09:51:45.024Z,20.91
2018-09-29T09:54:13.556Z,22.30
2018-09-29T09:56:42.020Z,22.18
2018-09-29T09:59:10.999Z,24.29
2018-09-29T10:01:44.590Z,23.06
2018-09-29T10:04:12.928Z,22.56
2018-09-29T10:06:41.783Z,22.63
2018-09-29T10:09:11.867Z,19.91
2018-09-29T10:11:40.240Z,21.94
2018-09-29T10:14:08.760Z,22.10
2018-09-29T10:16:37.258Z,20.02
2018-09-29T10:19:06.215Z,19.00
2018-09-29T10:21:34.875Z,21.55
2018-09-29T10:24:03.484Z,19.97
2018-09-29T10:26:32.230Z,18.95
2018-09-29T10:29:00.539Z,20.32
2018-09-29T10:31:28.956Z,20.97
2018-09-29T10:33:57.255Z,20.72
2018-09-29T10:36:26.309Z,20.86
2018-09-29T10:38:54.563Z,21.64
2018-09-29T10:41:22.920Z,21.35
2018-09-29T10:43:51.251Z,19.59
2018-09-29T10:46:19.575Z,19.74
2018-09-29T10:48:47.916Z,21.89
2018-09-29T10:51:16.302Z,20.43
2018-09-29T10:53:44.588Z,20.33
2018-09-29T10:56:13.416Z,18.93
2018-09-29T10:58:41.711Z,19.93
2018-09-29T11:01:10.042Z,19.91
2018-09-29T11:03:38.419Z,17.89
2018-09-29T11:06:06.763Z,18.50
2018-09-29T11:08:35.144Z,16.79
2018-09-29T11:11:03.558Z,16.93
2018-09-29T11:13:31.875Z,18.10
2018-09-29T11:16:00.258Z,18.05
2018-09-29T11:18:28.562Z,17.68
2018-09-29T11:20:56.940Z,18.12
2018-09-29T11:23:25.228Z,18.30
2018-09-29T11:25:53.746Z,18.74
2018-09-29T11:28:22.528Z,17.90
2018-09-29T11:30:51.055Z,17.91
2018-09-29T11:33:19.778Z,19.81
2018-09-29T11:35:48.691Z,19.91
2018-09-29T11:38:17.036Z,19.74
2018-09-29T11:40:45.337Z,19.91
2018-09-29T11:43:13.836Z,20.66
2018-09-29T11:45:42.128Z,20.16
2018-09-29T11:48:10.443Z,18.86
2018-09-29T11:50:39.103Z,18.85
2018-09-29T11:53:08.002Z,19.14
2018-09-29T11:55:36.308Z,19.81
2018-09-29T11:58:05.300Z,20.48
2018-09-29T12:00:33.623Z,21.73
2018-09-29T12:03:02.251Z,21.74
2018-09-29T12:05:30.591Z,20.10
2018-09-29T12:08:00.904Z,19.75
2018-09-29T12:10:30.906Z,20.12
2018-09-29T12:12:59.239Z,17.50
2018-09-29T12:15:27.576Z,18.48
2018-09-29T12:17:55.919Z,18.10
2018-09-29T12:20:24.213Z,18.76
2018-09-29T12:22:52.588Z,18.17
2018-09-29T12:25:20.896Z,19.84
2018-09-29T12:27:49.307Z,18.90
2018-09-29T12:30:17.631Z,19.18
2018-09-29T12:32:46.052Z,18.08
2018-09-29T12:35:14.514Z,19.38
2018-09-29T12:37:42.871Z,18.62
2018-09-29T12:40:11.198Z,18.07
2018-09-29T12:42:39.940Z,17.91
2018-09-29T12:45:08.340Z,16.40
2018-09-29T12:47:36.702Z,18.03
2018-09-29T12:50:05.063Z,19.27
2018-09-29T12:52:33.455Z,17.63
2018-09-29T12:55:01.800Z,17.42
2018-09-29T12:57:30.212Z,17.41
2018-09-29T12:59:58.604Z,17.75
2018-09-29T13:02:26.951Z,17.54
2018-09-29T13:04:55.256Z,19.44
2018-09-29T13:07:23.606Z,17.68
2018-09-29T13:09:51.914Z,17.09
2018-09-29T13:12:20.307Z,18.60
2018-09-29T13:14:48.624Z,18.82
2018-09-29T13:17:16.967Z,18.63
2018-09-29T13:19:45.316Z,17.56
2018-09-29T13:22:13.719Z,17.09
2018-09-29T13:24:42.063Z,18.55
2018-09-29T13:27:10.436Z,19.16
2018-09-29T13:29:38.845Z,19.12
2018-09-29T13:32:07.396Z,18.17
2018-09-29T13:34:36.067Z,18.41
2018-09-29T13:37:04.437Z,18.23
2018-09-29T13:39:33.662Z,19.76
2018-09-29T13:42:04.565Z,18.48
2018-09-29T13:44:33.692Z,18.20
2018-09-29T13:47:02.959Z,19.01
2018-09-29T13:49:31.952Z,18.69
2018-09-29T13:54:33.431Z,19.53
2018-09-29T13:57:02.283Z,18.96
2018-09-29T13:59:30.628Z,19.62
2018-09-29T14:02:00.154Z,17.65
2018-09-29T14:04:28.512Z,18.27
2018-09-29T14:06:58.049Z,17.39
2018-09-29T14:09:27.503Z,18.60
2018-09-29T14:11:56.350Z,20.51
2018-09-29T14:14:24.659Z,18.98
2018-09-29T14:16:53.075Z,19.12
2018-09-29T14:19:21.364Z,18.51
2018-09-29T14:21:49.703Z,19.66
2018-09-29T14:24:18.027Z,19.29
2018-09-29T14:26:46.327Z,20.04
2018-09-29T14:29:14.703Z,19.71
2018-09-29T14:31:43.051Z,19.15
2018-09-29T14:34:11.411Z,19.90
2018-09-29T14:36:39.863Z,19.45
2018-09-29T14:39:09.121Z,19.98
2018-09-29T14:41:38.585Z,20.22
2018-09-29T14:44:07.132Z,19.78
2018-09-29T14:46:35.452Z,19.14
2018-09-29T14:49:03.768Z,19.60
2018-09-29T14:51:32.063Z,18.93
2018-09-29T14:54:00.994Z,19.26
2018-09-29T14:56:29.304Z,19.41
2018-09-29T14:58:57.623Z,20.26
2018-09-29T15:01:25.996Z,20.90
2018-09-29T15:03:54.388Z,20.70
2018-09-29T15:06:22.704Z,20.52
2018-09-29T15:08:51.060Z,21.49
2018-09-29T15:11:19.408Z,21.31
2018-09-29T15:13:47.836Z,22.40
2018-09-29T15:16:16.196Z,22.33
2018-09-29T15:18:44.827Z,22.67
2018-09-29T15:21:14.069Z,22.92
2018-09-29T15:23:42.420Z,23.54
2018-09-29T15:26:10.845Z,22.41
2018-09-29T15:28:39.444Z,23.59
2018-09-29T15:31:08.221Z,23.43
2018-09-29T15:33:36.566Z,23.35
2018-09-29T15:36:05.697Z,24.80
2018-09-29T15:38:34.032Z,25.51
2018-09-29T15:41:07.884Z,26.50
2018-09-29T15:43:36.295Z,26.07
2018-09-29T15:46:04.627Z,27.03
2018-09-29T15:48:33.025Z,27.05
2018-09-29T15:51:01.362Z,28.98
2018-09-29T15:53:29.723Z,28.67
2018-09-29T15:55:58.451Z,28.24
2018-09-29T15:58:26.819Z,30.72
2018-09-29T16:00:55.151Z,29.76
2018-09-29T16:03:23.948Z,31.14
2018-09-29T16:05:52.239Z,30.23
2018-09-29T16:08:20.663Z,31.08
2018-09-29T16:10:48.988Z,31.11
2018-09-29T16:13:17.650Z,31.68
2018-09-29T16:15:45.947Z,32.66
2018-09-29T16:18:14.292Z,33.61
2018-09-29T16:20:42.644Z,33.95
2018-09-29T16:23:11.359Z,36.03
2018-09-29T16:25:40.835Z,37.16
2018-09-29T16:28:09.154Z,37.16
2018-09-29T16:30:37.504Z,37.66
2018-09-29T16:33:05.963Z,39.13
2018-09-29T16:35:34.283Z,38.48
2018-09-29T16:38:02.604Z,40.79
2018-09-29T16:40:31.108Z,41.48
2018-09-29T16:42:59.427Z,41.98
2018-09-29T16:45:27.732Z,42.76
2018-09-29T16:47:56.104Z,42.83
2018-09-29T16:50:24.431Z,44.51
2018-09-29T16:52:52.938Z,44.63
2018-09-29T16:55:21.278Z,46.08
2018-09-29T16:57:50.068Z,47.03
2018-09-29T17:00:18.403Z,47.21
2018-09-29T17:02:46.734Z,48.73
2018-09-29T17:05:15.486Z,50.25
2018-09-29T17:07:43.807Z,50.99
2018-09-29T17:10:12.200Z,52.14
2018-09-29T17:12:41.536Z,53.05
2018-09-29T17:15:09.871Z,53.62
2018-09-29T17:17:38.235Z,54.00
2018-09-29T17:20:06.609Z,54.68
2018-09-29T17:22:34.954Z,55.86
2018-09-29T17:25:03.356Z,56.36
2018-09-29T17:27:31.684Z,57.00
2018-09-29T17:30:00.075Z,57.78
2018-09-29T17:32:28.371Z,58.01
2018-09-29T17:34:56.736Z,58.64
2018-09-29T17:37:25.507Z,58.59
2018-09-29T17:39:53.887Z,59.42
2018-09-29T17:42:22.182Z,60.29
2018-09-29T17:44:50.540Z,61.10
2018-09-29T17:47:19.068Z,62.44
2018-09-29T17:49:47.420Z,62.14
2018-09-29T17:52:15.782Z,63.20
2018-09-29T17:54:44.099Z,63.29
2018-09-29T17:57:12.412Z,62.88
2018-09-29T17:59:40.748Z,63.20
2018-09-29T18:02:09.480Z,63.42
2018-09-29T18:04:37.887Z,63.86
2018-09-29T18:07:06.432Z,64.35
2018-09-29T18:09:34.736Z,64.62
2018-09-29T18:12:03.122Z,64.45
2018-09-29T18:14:31.415Z,64.35
2018-09-29T18:16:59.942Z,63.83
2018-09-29T18:19:28.492Z,64.43
2018-09-29T18:21:57.108Z,64.49
2018-09-29T18:24:25.757Z,64.82
2018-09-29T18:26:54.147Z,65.20
2018-09-29T18:29:22.456Z,66.26
2018-09-29T18:31:50.827Z,65.34
2018-09-29T18:34:19.224Z,66.16
2018-09-29T18:36:47.785Z,65.97
2018-09-29T18:39:16.103Z,66.80
2018-09-29T18:41:45.263Z,66.45
2018-09-29T18:44:13.552Z,67.30
2018-09-29T18:46:41.942Z,66.91
2018-09-29T18:49:10.250Z,67.23
2018-09-29T18:51:38.707Z,66.88
2018-09-29T18:54:07.036Z,66.42
2018-09-29T18:56:35.391Z,66.82
2018-09-29T18:59:03.772Z,65.77
2018-09-29T19:01:32.158Z,68.51
2018-09-29T19:04:00.495Z,68.82
2018-09-29T19:06:28.856Z,69.06
2018-09-29T19:08:57.248Z,68.61
2018-09-29T19:11:25.586Z,68.51
2018-09-29T19:13:53.899Z,69.20
2018-09-29T19:16:23.248Z,68.92
2018-09-29T19:18:51.620Z,68.31
2018-09-29T19:21:20.502Z,69.05
2018-09-29T19:23:48.822Z,69.42
2018-09-29T19:26:17.165Z,69.74
2018-09-29T19:28:45.466Z,69.26
2018-09-29T19:31:13.743Z,69.76
2018-09-29T19:33:42.096Z,70.03
2018-09-29T19:36:10.394Z,69.04
2018-09-29T19:38:38.667Z,69.27
2018-09-29T19:41:07.041Z,70.71
2018-09-29T19:43:35.339Z,69.91
2018-09-29T19:46:03.715Z,69.99
2018-09-29T19:48:31.996Z,69.88
2018-09-29T19:51:00.295Z,70.58
2018-09-29T19:53:28.587Z,70.70
2018-09-29T19:55:56.890Z,70.55
2018-09-29T19:58:25.215Z,70.48
2018-09-29T20:00:53.523Z,70.68
2018-09-29T20:03:21.798Z,71.56
2018-09-29T20:05:50.055Z,71.90
2018-09-29T20:08:18.347Z,71.58
2018-09-29T20:10:46.738Z,70.91
2018-09-29T20:13:15.727Z,71.37
2018-09-29T20:15:44.438Z,71.48
2018-09-29T20:18:13.113Z,71.95
2018-09-29T20:20:41.390Z,72.66
2018-09-29T20:23:12.059Z,72.67
2018-09-29T20:25:40.447Z,73.12
2018-09-29T20:28:08.778Z,74.59
2018-09-29T20:30:37.423Z,74.25
2018-09-29T20:33:06.180Z,74.20
2018-09-29T20:35:34.698Z,73.59
2018-09-29T20:38:03.167Z,74.40
2018-09-29T20:40:31.423Z,74.29
2018-09-29T20:43:00.160Z,74.03
2018-09-29T20:45:28.518Z,74.55
2018-09-29T20:47:56.810Z,74.71
2018-09-29T20:50:25.542Z,73.36
2018-09-29T20:52:53.932Z,74.12
2018-09-29T20:55:22.215Z,74.85
2018-09-29T20:57:50.499Z,74.21
2018-09-29T21:00:18.958Z,74.55
2018-09-29T21:02:47.270Z,74.61
2018-09-29T21:05:15.532Z,74.36
2018-09-29T21:07:43.900Z,74.54
2018-09-29T21:10:12.207Z,73.89
2018-09-29T21:12:40.514Z,74.57
2018-09-29T21:15:08.827Z,74.29
2018-09-29T21:17:37.110Z,74.36
2018-09-29T21:20:05.791Z,73.95
2018-09-29T21:22:34.098Z,74.42
2018-09-29T21:25:02.396Z,73.64
2018-09-29T21:27:30.727Z,73.20
2018-09-29T21:29:59.050Z,73.87
2018-09-29T21:32:27.345Z,74.82
2018-09-29T21:34:55.654Z,75.12
2018-09-29T21:37:23.929Z,75.02
2018-09-29T21:39:52.216Z,75.75
2018-09-29T21:42:20.517Z,75.81
2018-09-29T21:44:48.762Z,75.66
2018-09-29T21:47:17.022Z,74.96
2018-09-29T21:49:45.375Z,75.75
2018-09-29T21:52:13.683Z,75.92
2018-09-29T21:54:41.966Z,75.87
2018-09-29T21:57:10.246Z,75.60
2018-09-29T21:59:38.542Z,74.92
2018-09-29T22:02:06.847Z,74.71
2018-09-29T22:04:35.286Z,73.26
2018-09-29T22:07:03.498Z,73.89
2018-09-29T22:09:31.811Z,74.08
2018-09-29T22:12:00.111Z,76.26
2018-09-29T22:14:28.390Z,75.95
2018-09-29T22:16:56.662Z,76.24
2018-09-29T22:19:25.251Z,75.58
2018-09-29T22:21:53.539Z,75.36
2018-09-29T22:24:21.839Z,74.39
2018-09-29T22:26:50.142Z,75.26
2018-09-29T22:29:18.436Z,75.48
2018-09-29T22:31:46.717Z,74.70
2018-09-29T22:34:15.067Z,74.63
2018-09-29T22:36:43.330Z,74.35
2018-09-29T22:39:12.538Z,75.65
2018-09-29T22:41:40.823Z,76.46
2018-09-29T22:44:09.103Z,77.81
2018-09-29T22:46:37.440Z,78.02
2018-09-29T22:49:05.782Z,76.91
2018-09-29T22:51:34.039Z,77.60
2018-09-29T22:54:02.320Z,77.87
2018-09-29T22:56:30.687Z,77.01
2018-09-29T22:58:59.135Z,77.02
2018-09-29T23:01:27.466Z,76.52
2018-09-29T23:03:56.302Z,78.05
2018-09-29T23:06:24.591Z,78.02
2018-09-29T23:08:52.975Z,78.95
2018-09-29T23:11:21.330Z,79.02
2018-09-29T23:13:49.647Z,79.40
2018-09-29T23:16:18.259Z,78.96
2018-09-29T23:18:47.010Z,79.83
2018-09-29T23:21:15.740Z,78.01
2018-09-29T23:23:44.038Z,78.04
2018-09-29T23:26:14.746Z,78.41
2018-09-29T23:28:42.999Z,71.68
2018-09-29T23:31:11.649Z,69.34
2018-09-29T23:33:39.919Z,66.25
2018-09-29T23:36:08.195Z,70.25
2018-09-29T23:38:36.482Z,69.51
2018-09-29T23:41:05.348Z,70.44
2018-09-29T23:43:33.611Z,70.38
2018-09-29T23:46:01.955Z,73.20
2018-09-29T23:48:30.252Z,73.82
2018-09-29T23:50:58.574Z,76.00
2018-09-29T23:53:26.847Z,75.86
2018-09-29T23:55:55.142Z,74.76
2018-09-29T23:58:23.450Z,74.15
